Time;durP1;ratioP1;P1;durP2;ratioP2;P2;SDS_P1;SDS_P2;PMS_P1;PMS_P2;Temp;Humidity;BMP_temperature;BMP_pressure;BME280_temperature;BME280_humidity;BME280_pressure;Samples;Min_cycle;Max_cycle;Signal;HPM_P1;HPM_P2
2022/09/04 00:00:11;;;;;;;2.93;2.57;;;20.80;39.10;;;23.39;32.35;101617.16;5053045;28;20202;-62
2022/09/04 00:03:14;;;;;;;2.00;1.80;;;20.80;39.20;;;23.31;32.61;101617.47;5052257;28;20693;-63
2022/09/04 00:05:49;;;;;;;1.80;1.70;;;20.70;39.40;;;23.27;32.74;101611.75;5052429;28;20178;-63
2022/09/04 00:08:40;;;;;;;2.27;1.40;;;20.60;39.40;;;23.21;32.92;101609.19;5052895;28;20231;-63
2022/09/04 00:11:22;;;;;;;2.23;1.90;;;20.60;39.60;;;23.19;33.09;101604.06;5053055;28;20190;-63
2022/09/04 00:13:59;;;;;;;3.43;2.00;;;20.60;39.70;;;23.17;32.76;101610.72;5053439;28;20185;-63
2022/09/04 00:16:41;;;;;;;2.07;1.80;;;20.50;39.80;;;23.15;32.85;101607.47;5053397;28;20178;-62
2022/09/04 00:19:24;;;;;;;2.37;1.73;;;20.50;39.80;;;23.12;32.94;101607.94;5061872;28;20646;-62
2022/09/04 00:21:58;;;;;;;1.77;1.63;;;20.50;39.90;;;23.12;32.71;101613.31;5072712;28;20236;-61
2022/09/04 00:24:33;;;;;;;3.10;1.93;;;20.50;40.00;;;23.08;32.92;101609.47;5072827;28;20182;-63
2022/09/04 00:27:12;;;;;;;2.30;1.87;;;20.40;40.00;;;23.05;33.12;101617.97;5073506;28;20578;-63
2022/09/04 00:29:50;;;;;;;2.70;1.70;;;20.50;40.10;;;23.04;33.09;101621.72;5073071;28;20177;-63
2022/09/04 00:32:25;;;;;;;3.23;1.80;;;20.40;40.00;;;22.99;33.29;101625.09;5073936;28;20209;-63
2022/09/04 00:35:12;;;;;;;1.60;1.50;;;20.40;40.10;;;22.95;33.15;101623.94;5055746;28;20536;-62
2022/09/04 00:37:47;;;;;;;4.03;2.40;;;20.40;40.20;;;22.97;33.21;101627.22;5054570;28;20533;-62
2022/09/04 00:40:25;;;;;;;2.63;1.70;;;20.40;40.20;;;22.98;33.49;101633.41;5053966;28;20186;-62
2022/09/04 00:43:42;;;;;;;4.90;2.10;;;20.40;40.30;;;22.93;33.50;101626.06;5053640;28;20615;-62
2022/09/04 00:46:48;;;;;;;1.97;1.60;;;20.40;40.50;;;22.90;33.40;101630.03;5054746;28;20194;-63
2022/09/04 00:49:57;;;;;;;1.97;1.40;;;20.40;40.40;;;22.87;33.53;101630.47;5054217;28;20185;-62
2022/09/04 00:52:56;;;;;;;1.50;1.40;;;20.30;40.30;;;22.87;33.60;101627.78;5053968;28;20209;-63
2022/09/04 00:55:58;;;;;;;2.70;1.50;;;20.30;40.30;;;22.83;33.71;101637.38;5054789;28;20174;-61
2022/09/04 00:59:02;;;;;;;1.67;1.57;;;20.30;40.50;;;22.79;33.56;101638.06;5054291;28;20511;-61
2022/09/04 01:01:30;;;;;;;2.67;1.57;;;20.30;40.60;;;22.85;33.85;101634.44;5054763;28;20651;-62
2022/09/04 01:04:30;;;;;;;2.33;1.70;;;20.20;40.60;;;22.81;33.57;101639.47;5058229;28;20276;-63
2022/09/04 01:07:22;;;;;;;1.77;1.57;;;20.20;40.70;;;22.79;33.70;101646.97;5058382;28;20186;-62
2022/09/04 01:10:37;;;;;;;2.83;1.67;;;20.20;40.80;;;22.73;34.19;101647.03;5058540;28;20257;-62
2022/09/04 01:13:15;;;;;;;1.90;1.27;;;20.20;41.00;;;22.73;33.93;101652.41;5051261;28;20237;-63
2022/09/04 01:15:49;;;;;;;2.50;1.70;;;20.10;41.00;;;22.73;33.54;101645.19;5058013;28;20208;-63
2022/09/04 01:18:29;;;;;;;2.47;2.13;;;20.10;41.10;;;22.72;33.75;101651.63;5058359;28;20658;-62
2022/09/04 01:21:29;;;;;;;2.40;1.83;;;20.10;41.20;;;22.68;33.86;101653.13;5056992;28;20534;-61
2022/09/04 01:24:48;;;;;;;3.03;2.50;;;20.10;41.20;;;22.62;34.18;101651.38;5072723;28;20280;-62
2022/09/04 01:27:26;;;;;;;2.73;2.43;;;20.10;41.40;;;22.63;34.32;101657.56;5013780;28;20233;-62
2022/09/04 01:30:05;;;;;;;1.63;1.50;;;20.00;41.40;;;22.60;34.06;101658.81;5058021;28;20177;-62
2022/09/04 01:32:47;;;;;;;4.30;2.13;;;20.00;41.50;;;22.57;33.93;101659.25;5057709;28;20202;-63
2022/09/04 01:35:29;;;;;;;1.90;1.80;;;20.00;41.60;;;22.54;34.35;101654.34;5058074;28;20179;-62
2022/09/04 01:38:11;;;;;;;1.47;1.37;;;19.90;41.60;;;22.51;34.44;101648.63;5058368;28;20192;-61
2022/09/04 01:40:47;;;;;;;1.90;1.70;;;19.90;41.80;;;22.51;34.19;101646.75;5058143;28;20178;-63
2022/09/04 01:43:21;;;;;;;2.90;1.70;;;19.90;41.80;;;22.50;34.16;101642.44;5059115;28;20559;-63
2022/09/04 01:46:21;;;;;;;1.70;1.60;;;19.90;41.90;;;22.43;34.39;101647.09;5058481;28;20184;-63
2022/09/04 01:48:57;;;;;;;3.40;1.60;;;19.90;42.00;;;22.45;34.41;101645.00;5057316;28;20647;-61
2022/09/04 01:51:39;;;;;;;1.83;1.73;;;19.80;41.90;;;22.42;34.75;101650.81;5054977;28;20538;-62
2022/09/04 01:54:41;;;;;;;2.33;1.60;;;19.80;42.00;;;22.37;34.99;101648.00;5036885;28;20195;-63
2022/09/04 01:57:26;;;;;;;3.50;1.73;;;19.80;42.10;;;22.35;34.86;101655.47;5038021;28;20215;-62
2022/09/04 02:00:07;;;;;;;3.63;1.53;;;19.80;42.20;;;22.31;34.96;101672.25;5037244;28;20304;-61
2022/09/04 02:02:54;;;;;;;2.60;1.50;;;19.70;42.30;;;22.26;34.70;101667.56;5052645;28;20221;-64
2022/09/04 02:05:35;;;;;;;1.53;1.43;;;19.60;42.30;;;22.24;34.55;101662.44;5037198;28;20195;-62
2022/09/04 02:08:23;;;;;;;2.47;1.47;;;19.60;42.40;;;22.18;35.07;101666.03;5037197;28;20174;-62
2022/09/04 02:11:05;;;;;;;1.33;1.23;;;19.60;42.60;;;22.15;35.02;101673.72;5038860;28;20190;-62
2022/09/04 02:13:50;;;;;;;1.57;1.47;;;19.50;42.60;;;22.12;34.90;101669.63;5056724;28;20682;-63
2022/09/04 02:16:33;;;;;;;3.70;1.43;;;19.50;42.80;;;22.08;34.91;101675.69;5057014;28;20597;-63
2022/09/04 02:19:15;;;;;;;3.60;1.20;;;19.50;42.90;;;22.08;35.31;101675.69;5056416;28;20197;-62
2022/09/04 02:21:54;;;;;;;1.97;1.40;;;19.40;43.00;;;22.05;35.24;101681.50;5055127;28;20225;-62
2022/09/04 02:24:33;;;;;;;3.00;1.80;;;19.40;43.10;;;22.05;35.50;101676.13;5055536;28;20662;-62
2022/09/04 02:27:10;;;;;;;2.50;1.57;;;19.40;43.30;;;22.06;35.45;101675.91;5055738;28;20193;-61
2022/09/04 02:29:47;;;;;;;1.57;1.10;;;19.40;43.30;;;22.08;35.52;101681.06;5055599;28;20665;-62
2022/09/04 02:32:29;;;;;;;3.23;1.50;;;19.40;43.10;;;22.06;35.10;101678.56;5055486;28;20251;-62
2022/09/04 02:35:05;;;;;;;2.67;1.80;;;19.40;43.30;;;22.05;35.00;101671.59;5056279;28;20235;-62
2022/09/04 02:37:44;;;;;;;1.70;1.33;;;19.40;43.40;;;22.03;35.50;101667.50;5070134;28;20543;-63
2022/09/04 02:40:25;;;;;;;2.03;1.60;;;19.30;43.40;;;22.01;35.71;101680.31;5076485;28;20178;-62
2022/09/04 02:43:20;;;;;;;3.70;1.60;;;19.40;43.50;;;21.94;35.21;101676.91;5075595;28;20221;-62
2022/09/04 02:46:01;;;;;;;1.60;1.50;;;19.30;43.40;;;21.93;35.40;101677.94;5075489;28;20181;-62
2022/09/04 02:48:43;;;;;;;2.30;1.40;;;19.30;43.70;;;21.93;35.86;101677.94;5075436;28;20184;-64
2022/09/04 02:51:37;;;;;;;2.93;1.67;;;19.30;43.70;;;21.87;35.70;101673.50;5075558;28;20173;-62
2022/09/04 02:54:18;;;;;;;1.50;1.40;;;19.30;43.90;;;21.90;35.62;101681.06;5035578;28;20187;-62
2022/09/04 02:57:06;;;;;;;1.60;1.50;;;19.20;43.80;;;21.88;35.86;101680.47;5035835;28;20175;-63
2022/09/04 02:59:50;;;;;;;1.67;1.43;;;19.20;43.80;;;21.88;36.21;101680.47;5035081;28;20216;-62
2022/09/04 03:02:27;;;;;;;1.73;1.60;;;19.20;43.90;;;21.85;36.27;101689.78;5035099;28;20207;-63
2022/09/04 03:05:06;;;;;;;1.50;1.40;;;19.20;43.90;;;21.81;35.61;101680.53;5034762;28;20225;-63
2022/09/04 03:07:38;;;;;;;1.53;1.43;;;19.20;44.00;;;21.80;35.80;101683.44;5040996;28;20563;-63
2022/09/04 03:10:14;;;;;;;2.07;1.60;;;19.20;44.20;;;21.76;36.24;101676.88;5054955;28;20189;-62
2022/09/04 03:12:50;;;;;;;2.83;1.30;;;19.10;44.20;;;21.70;36.13;101689.34;5055057;28;20205;-61
2022/09/04 03:15:28;;;;;;;2.63;1.73;;;19.00;44.30;;;21.67;36.30;101688.94;5055068;28;20284;-62
2022/09/04 03:18:03;;;;;;;1.63;1.40;;;19.00;44.30;;;21.64;36.40;101689.41;5054908;28;20178;-61
2022/09/04 03:20:41;;;;;;;1.70;1.60;;;19.00;44.60;;;21.59;36.63;101685.53;5054696;28;20197;-62
2022/09/04 03:23:18;;;;;;;3.33;1.50;;;19.00;44.60;;;21.58;36.30;101689.25;5054948;28;20214;-62
2022/09/04 03:26:19;;;;;;;6.83;1.90;;;18.90;44.60;;;21.48;36.58;101694.31;5069359;28;20550;-63
2022/09/04 03:29:05;;;;;;;2.40;1.60;;;18.90;44.90;;;21.49;36.36;101685.22;5055352;28;20178;-63
2022/09/04 03:31:47;;;;;;;1.43;1.33;;;18.90;44.80;;;21.48;36.33;101686.28;5053938;28;20201;-63
2022/09/04 03:34:37;;;;;;;4.17;1.50;;;18.90;44.90;;;21.46;36.95;101682.19;5052927;28;20202;-64
2022/09/04 03:37:40;;;;;;;3.37;1.37;;;18.80;44.90;;;21.42;36.51;101681.81;5053499;28;20182;-63
2022/09/04 03:40:23;;;;;;;1.50;1.40;;;18.90;45.10;;;21.46;36.68;101682.19;5052959;28;20181;-62
2022/09/04 03:43:19;;;;;;;3.13;1.40;;;18.90;45.00;;;21.45;37.01;101685.91;5052908;28;20209;-62
2022/09/04 03:46:00;;;;;;;3.13;1.60;;;18.80;44.90;;;21.43;36.55;101693.34;5052703;28;20190;-63
2022/09/04 03:48:50;;;;;;;1.80;1.50;;;18.90;45.10;;;21.40;36.87;101694.59;5053025;28;20189;-61
2022/09/04 03:51:33;;;;;;;1.10;1.10;;;18.80;45.00;;;21.40;37.16;101699.97;5052186;28;20205;-63
2022/09/04 03:54:16;;;;;;;1.93;1.50;;;18.80;45.10;;;21.38;37.12;101696.69;5052838;28;20502;-63
2022/09/04 03:57:22;;;;;;;1.50;1.40;;;18.80;45.60;;;21.30;36.68;101705.00;5052589;28;20204;-62
2022/09/04 04:00:09;;;;;;;2.20;1.37;;;18.80;45.20;;;21.29;36.70;101707.91;5053018;28;20221;-63
2022/09/04 04:03:09;;;;;;;1.53;1.30;;;18.70;45.40;;;21.27;37.22;101710.00;5054080;28;20255;-61
2022/09/04 04:05:52;;;;;;;2.40;1.63;;;18.70;45.50;;;21.32;36.71;101707.47;5034241;28;20194;-64
2022/09/04 04:09:20;;;;;;;1.93;1.30;;;18.70;45.40;;;21.25;37.27;101712.09;5032861;28;20190;-60
2022/09/04 04:12:26;;;;;;;1.43;1.30;;;18.70;45.40;;;21.19;37.45;101718.31;5032139;28;20233;-61
2022/09/04 04:15:26;;;;;;;1.63;1.47;;;18.60;45.40;;;21.17;37.47;101721.22;5026708;28;20248;-62
2022/09/04 04:18:20;;;;;;;2.60;1.60;;;18.60;45.50;;;21.14;37.53;101724.31;5032384;28;20191;-62
2022/09/04 04:21:07;;;;;;;1.53;1.43;;;18.60;45.60;;;21.16;37.06;101729.44;5032021;28;20517;-63
2022/09/04 04:24:14;;;;;;;1.83;1.53;;;18.60;45.60;;;21.12;37.25;101728.25;5032077;28;20579;-63
2022/09/04 04:27:09;;;;;;;3.20;1.80;;;18.60;45.80;;;21.14;37.16;101726.16;5032095;28;20183;-63
2022/09/04 04:30:03;;;;;;;2.07;1.60;;;18.60;45.70;;;21.15;37.19;101734.00;5031944;28;20199;-62
2022/09/04 04:33:20;;;;;;;2.63;1.43;;;18.60;45.80;;;21.09;37.41;101732.19;5031909;28;20214;-63
2022/09/04 04:36:01;;;;;;;1.83;1.30;;;18.60;45.80;;;21.09;37.19;101726.00;5032204;28;20194;-63
2022/09/04 04:38:55;;;;;;;3.73;1.60;;;18.60;45.80;;;21.03;37.49;101730.38;5075958;28;20185;-63
2022/09/04 04:42:04;;;;;;;1.70;1.60;;;18.50;45.80;;;20.97;38.03;101731.22;5076588;28;20499;-62
2022/09/04 04:48:50;;;;;;;1.60;1.50;;;18.40;46.10;;;20.91;37.99;101742.81;5056112;28;20642;-63
2022/09/04 04:51:38;;;;;;;1.60;1.50;;;18.40;46.30;;;20.94;38.12;101753.09;5055880;28;20193;-62
2022/09/04 04:54:36;;;;;;;1.90;1.80;;;18.40;46.40;;;20.95;37.63;101754.72;5035678;28;20270;-63
2022/09/04 04:57:19;;;;;;;1.70;1.60;;;18.40;46.40;;;20.97;37.53;101758.00;5035970;28;20187;-63
2022/09/04 05:00:05;;;;;;;2.00;1.80;;;18.40;46.30;;;20.96;37.57;101756.38;5042317;28;20543;-61
2022/09/04 05:02:49;;;;;;;2.17;1.57;;;18.30;46.40;;;20.95;37.77;101760.06;5075239;28;20209;-62
2022/09/04 05:05:46;;;;;;;3.27;1.90;;;18.30;46.30;;;20.90;37.78;101757.22;5075852;28;20221;-62
2022/09/04 05:08:30;;;;;;;6.40;2.03;;;18.30;46.60;;;20.92;37.76;101757.81;5077343;28;20193;-63
2022/09/04 05:11:06;;;;;;;2.53;2.07;;;18.30;46.60;;;20.91;38.15;101759.72;5076757;28;20190;-62
2022/09/04 05:13:49;;;;;;;1.40;1.23;;;18.20;46.60;;;20.92;37.89;101760.50;5075350;28;20205;-62
2022/09/04 05:16:33;;;;;;;2.13;1.80;;;18.20;46.80;;;20.96;37.63;101760.91;5061712;28;20201;-63
2022/09/04 05:19:14;;;;;;;3.37;1.47;;;18.20;46.90;;;21.03;38.20;101767.84;5055590;28;20221;-63
2022/09/04 05:21:52;;;;;;;1.93;1.30;;;18.30;46.90;;;21.07;37.90;101774.44;5054995;28;20542;-63
2022/09/04 05:24:31;;;;;;;2.57;1.77;;;18.30;46.90;;;21.09;37.73;101780.38;5055054;28;20225;-63
2022/09/04 05:27:12;;;;;;;1.97;1.40;;;18.30;46.80;;;21.10;37.95;101784.72;5055481;28;20194;-64
2022/09/04 05:29:50;;;;;;;2.30;1.83;;;18.30;46.70;;;21.13;37.72;101788.81;5054822;28;20205;-63
2022/09/04 05:32:27;;;;;;;3.37;1.77;;;18.40;46.80;;;21.13;37.74;101794.19;5055144;28;20201;-63
2022/09/04 05:35:15;;;;;;;2.30;1.40;;;18.40;46.80;;;21.13;37.55;101796.84;5074441;28;20197;-63
2022/09/04 05:37:56;;;;;;;2.03;1.93;;;18.40;46.80;;;21.17;38.07;101796.19;5059356;28;20186;-63
2022/09/04 05:40:34;;;;;;;5.10;1.80;;;18.40;46.80;;;21.22;37.62;101799.03;5055210;28;20190;-63
2022/09/04 05:43:26;;;;;;;3.13;1.70;;;18.50;46.80;;;21.22;37.90;101799.03;5055807;28;20224;-62
2022/09/04 05:46:10;;;;;;;3.53;1.77;;;18.50;46.70;;;21.24;37.36;101802.31;5054808;28;20186;-63
2022/09/04 05:48:57;;;;;;;1.77;1.67;;;18.50;46.70;;;21.26;37.47;101810.13;5054491;28;20198;-63
2022/09/04 05:52:06;;;;;;;3.13;1.80;;;18.50;46.60;;;21.23;37.99;101814.06;5055038;28;20193;-62
2022/09/04 05:55:23;;;;;;;2.53;1.60;;;18.50;46.70;;;21.27;37.65;101811.78;5046797;28;20695;-62
2022/09/04 05:58:35;;;;;;;2.07;1.40;;;18.60;46.80;;;21.28;37.58;101814.22;5055249;28;20198;-63
2022/09/04 06:01:24;;;;;;;3.10;1.80;;;18.60;46.70;;;21.35;37.72;101809.63;5052651;28;20225;-63
2022/09/04 06:04:32;;;;;;;1.80;1.67;;;18.70;46.60;;;21.29;37.48;101810.53;5054785;28;20562;-63
2022/09/04 06:07:16;;;;;;;1.97;1.87;;;18.70;46.60;;;21.36;37.93;101810.47;5054973;28;20185;-63
2022/09/04 06:09:58;;;;;;;2.20;1.80;;;18.70;46.70;;;21.39;38.03;101804.69;5054986;28;20182;-63
2022/09/04 06:13:02;;;;;;;2.17;1.70;;;18.70;46.80;;;21.43;37.62;101806.69;5054382;28;20220;-62
2022/09/04 06:16:02;;;;;;;2.50;1.77;;;18.70;46.90;;;21.48;37.89;101808.72;5054516;28;20182;-63
2022/09/04 06:18:55;;;;;;;2.00;1.80;;;18.80;46.90;;;21.52;37.40;101813.41;5054893;28;20201;-63
2022/09/04 06:22:10;;;;;;;2.27;1.90;;;18.80;47.00;;;21.53;38.06;101816.91;5054187;28;20185;-63
2022/09/04 06:25:32;;;;;;;3.10;1.70;;;18.80;46.90;;;21.55;37.93;101821.03;5054422;28;20218;-62
2022/09/04 06:28:50;;;;;;;2.40;1.70;;;18.90;47.10;;;21.61;37.62;101824.66;5048761;28;20209;-63
2022/09/04 06:32:08;;;;;;;2.07;1.87;;;18.90;47.00;;;21.65;37.55;101820.53;5054006;28;20205;-63
2022/09/04 06:35:25;;;;;;;2.60;1.67;;;19.00;47.00;;;21.71;37.98;101814.25;5070647;28;20186;-63
2022/09/04 06:38:16;;;;;;;1.90;1.70;;;19.00;47.10;;;21.81;37.32;101827.16;5071963;28;20204;-64
2022/09/04 06:41:04;;;;;;;1.97;1.73;;;19.10;47.10;;;21.90;37.94;101823.16;5073983;28;20522;-63
2022/09/04 06:43:41;;;;;;;2.40;1.80;;;19.20;47.10;;;22.02;37.24;101829.44;5074151;28;20546;-63
2022/09/04 06:46:22;;;;;;;3.77;2.03;;;19.20;47.00;;;22.13;37.05;101831.41;5055497;28;20610;-62
2022/09/04 06:49:03;;;;;;;2.23;2.03;;;19.30;47.10;;;22.25;37.57;101837.63;5053870;28;20170;-63
2022/09/04 06:51:52;;;;;;;3.10;2.40;;;19.30;46.90;;;22.33;37.11;101834.66;5053938;28;20193;-61
2022/09/04 06:54:45;;;;;;;6.23;2.67;;;19.40;46.90;;;22.41;36.86;101842.41;5034399;28;20186;-62
2022/09/04 06:57:37;;;;;;;2.93;2.23;;;19.50;46.70;;;22.53;36.58;101851.34;5034422;28;20264;-63
2022/09/04 07:00:08;;;;;;;1.93;1.73;;;19.60;46.60;;;22.67;36.79;101852.84;5033711;28;20269;-62
2022/09/04 07:03:17;;;;;;;5.73;2.30;;;19.80;46.60;;;22.73;36.65;101857.28;5033903;28;20691;-63
2022/09/04 07:05:57;;;;;;;3.20;2.07;;;19.80;46.50;;;22.85;36.57;101857.34;5033697;28;20730;-62
2022/09/04 07:08:48;;;;;;;2.60;2.13;;;19.90;46.40;;;22.90;36.36;101863.66;5044793;28;20655;-63
2022/09/04 07:11:39;;;;;;;2.83;2.60;;;20.00;46.30;;;23.01;36.20;101853.19;5053614;28;20182;-63
2022/09/04 07:14:48;;;;;;;2.53;2.33;;;20.10;46.20;;;23.52;35.86;101869.56;5053859;28;20201;-63
2022/09/04 07:17:26;;;;;;;5.07;2.73;;;20.30;46.50;;;24.12;35.18;101867.50;5068611;28;20190;-62
2022/09/04 07:20:18;;;;;;;4.90;2.30;;;20.60;46.10;;;24.78;34.30;101862.41;5053640;28;20202;-63
2022/09/04 07:23:03;;;;;;;4.53;3.23;;;21.00;45.60;;;25.48;33.51;101862.06;5053550;28;20570;-62
2022/09/04 07:25:43;;;;;;;2.20;2.00;;;21.50;44.90;;;26.23;31.99;101865.06;5053717;28;20217;-62
2022/09/04 07:28:31;;;;;;;2.63;2.07;;;22.00;43.80;;;27.08;30.91;101872.50;5053371;28;20196;-63
2022/09/04 07:31:07;;;;;;;2.53;2.33;;;22.60;42.90;;;27.83;29.78;101865.06;5053068;28;20272;-64
2022/09/04 07:33:45;;;;;;;6.43;2.70;;;23.20;41.60;;;28.34;28.60;101870.72;5060778;28;20212;-62
2022/09/04 07:36:19;;;;;;;2.83;2.37;;;23.80;39.80;;;28.45;28.61;101869.72;5069703;28;20186;-64
2022/09/04 07:38:58;;;;;;;3.13;2.23;;;24.20;39.30;;;28.58;28.61;101866.50;5053303;28;20690;-64
2022/09/04 07:41:39;;;;;;;4.10;2.60;;;24.50;38.60;;;29.10;28.07;101880.72;5053010;28;20189;-61
2022/09/04 07:44:22;;;;;;;6.30;3.37;;;24.80;38.40;;;29.77;27.50;101876.97;5052539;28;20194;-63
2022/09/04 07:47:01;;;;;;;2.90;2.40;;;25.20;37.60;;;30.55;26.68;101881.63;5052806;28;20178;-64
2022/09/04 07:49:36;;;;;;;4.90;3.00;;;25.70;37.20;;;31.41;25.68;101878.34;5052579;28;20627;-62
2022/09/04 07:52:20;;;;;;;4.10;2.63;;;26.20;35.90;;;32.21;24.44;101881.38;5052835;28;20217;-62
2022/09/04 07:55:16;;;;;;;3.73;2.50;;;26.80;35.10;;;32.92;23.37;101882.06;5052976;28;20174;-63
2022/09/04 07:58:27;;;;;;;2.63;2.43;;;27.50;34.00;;;33.59;22.45;101877.22;5052818;28;20186;-62
2022/09/04 08:01:22;;;;;;;3.07;2.87;;;28.00;32.20;;;34.14;21.83;101881.63;5051390;28;20300;-62
2022/09/04 08:04:20;;;;;;;3.77;2.90;;;28.60;31.50;;;34.47;21.34;101883.09;5052498;28;20654;-63
2022/09/04 08:06:55;;;;;;;4.53;3.10;;;29.10;30.70;;;34.63;21.15;101881.69;5052837;28;20200;-62
2022/09/04 08:09:52;;;;;;;3.50;2.80;;;29.40;29.80;;;34.99;21.27;101883.59;5052876;28;20205;-63
2022/09/04 08:13:01;;;;;;;3.03;2.83;;;29.80;29.70;;;35.45;20.35;101889.56;5051531;28;20214;-63
2022/09/04 08:15:45;;;;;;;4.80;2.83;;;30.10;29.00;;;35.86;20.60;101884.66;5052570;28;20623;-64
2022/09/04 08:18:53;;;;;;;3.00;2.70;;;30.40;28.50;;;36.17;19.70;101892.06;5052441;28;20554;-63
2022/09/04 08:21:28;;;;;;;4.27;3.03;;;30.80;28.40;;;36.51;18.84;101894.91;5051920;28;20577;-62
2022/09/04 08:24:21;;;;;;;5.33;2.83;;;31.10;27.90;;;36.86;18.72;101888.31;5052355;28;20685;-63
2022/09/04 08:27:08;;;;;;;5.67;2.50;;;31.40;27.60;;;37.25;19.21;101896.38;5052540;28;20178;-63
2022/09/04 08:30:04;;;;;;;4.77;3.10;;;31.60;27.20;;;37.54;18.81;101901.19;5052687;28;20607;-62
2022/09/04 08:33:31;;;;;;;4.70;3.50;;;31.90;27.10;;;37.97;17.79;101898.31;5051974;28;20221;-63
2022/09/04 08:36:06;;;;;;;6.37;3.00;;;32.20;26.90;;;38.35;17.83;101904.59;5032542;28;20193;-63
2022/09/04 08:38:54;;;;;;;3.30;2.72;;;32.40;26.20;;;38.40;17.46;101904.41;5032418;28;20623;-62
2022/09/04 08:42:09;;;;;;;3.20;2.70;;;32.60;26.10;;;38.08;17.63;101899.56;5032136;28;20218;-65
2022/09/04 08:45:31;;;;;;;3.05;2.60;;;32.70;25.50;;;37.97;18.08;101898.31;5037773;28;20217;-62
2022/09/04 08:49:22;;;;;;;4.27;3.00;;;33.00;25.90;;;38.27;17.81;101894.44;5051902;28;20190;-63
2022/09/04 08:52:39;;;;;;;3.33;2.72;;;33.10;25.70;;;38.77;17.45;101899.97;5051891;28;20206;-62
2022/09/04 08:55:48;;;;;;;3.58;3.05;;;33.40;25.40;;;39.51;16.54;101908.19;5052129;28;20269;-63
2022/09/04 08:58:48;;;;;;;4.10;3.22;;;33.60;25.20;;;39.87;16.36;101907.47;5052085;28;20186;-62
2022/09/04 09:02:08;;;;;;;4.43;3.15;;;33.90;25.00;;;40.22;15.98;101911.41;5051808;28;20222;-63
2022/09/04 09:05:35;;;;;;;4.85;3.25;;;34.20;24.50;;;40.41;15.76;101908.88;5051927;28;20190;-64
2022/09/04 09:08:34;;;;;;;3.67;2.80;;;34.50;24.10;;;40.66;15.77;101909.63;5052009;28;20197;-63
2022/09/04 09:11:56;;;;;;;3.00;2.78;;;34.80;23.80;;;40.85;15.37;101908.97;5052129;28;20499;-64
2022/09/04 09:15:25;;;;;;;3.65;3.40;;;35.00;23.70;;;41.29;15.09;101904.38;5052010;28;20624;-65
2022/09/04 09:18:07;;;;;;;5.28;2.83;;;35.20;23.40;;;41.69;14.57;101902.28;5010592;28;20187;-64
2022/09/04 09:20:53;;;;;;;3.35;3.00;;;35.40;23.10;;;41.94;14.67;101908.44;5009747;28;20550;-64
2022/09/04 09:23:37;;;;;;;3.75;2.95;;;35.50;23.00;;;42.03;14.50;101907.09;5046928;28;20234;-63
2022/09/04 09:26:32;;;;;;;3.08;2.85;;;35.70;22.90;;;42.16;14.48;101905.84;5055783;28;20214;-64
2022/09/04 09:29:46;;;;;;;3.20;2.90;;;35.80;22.70;;;42.50;14.46;101906.22;5055319;28;20645;-63
2022/09/04 09:32:55;;;;;;;3.63;3.28;;;36.00;22.70;;;42.70;13.97;101900.31;5055132;28;20210;-63
2022/09/04 09:36:19;;;;;;;3.78;3.47;;;36.30;22.50;;;42.90;14.14;101901.16;5035295;28;20191;-63
2022/09/04 09:39:28;;;;;;;4.05;2.80;;;36.40;22.20;;;42.99;14.24;101898.97;5035164;28;20270;-62
2022/09/04 09:42:29;;;;;;;3.58;3.28;;;36.50;22.20;;;42.92;14.18;101898.81;5045885;28;20272;-64
2022/09/04 09:45:50;;;;;;;3.90;3.50;;;36.60;22.50;;;43.01;13.73;101891.88;5054292;28;20694;-62
2022/09/04 09:49:01;;;;;;;3.38;2.90;;;36.80;22.00;;;43.15;13.78;101905.22;5055279;28;20194;-63
2022/09/04 09:52:16;;;;;;;3.40;3.10;;;36.80;21.90;;;43.22;13.87;101897.03;5054474;28;20280;-64
2022/09/04 09:55:38;;;;;;;3.25;3.00;;;36.90;22.00;;;43.17;13.94;101900.13;5054939;28;20649;-63
2022/09/04 09:58:49;;;;;;;4.88;3.47;;;37.00;21.80;;;43.43;13.67;101891.09;5044569;28;20221;-63
2022/09/04 10:01:41;;;;;;;3.30;3.00;;;37.00;21.90;;;43.85;13.77;101896.59;5054761;28;20198;-63
2022/09/04 10:04:48;;;;;;;3.47;3.17;;;37.10;22.00;;;44.04;13.35;101894.50;5055191;28;20631;-63
2022/09/04 10:08:09;;;;;;;5.22;3.28;;;37.30;21.80;;;44.46;13.27;101891.56;5054802;28;20185;-63
2022/09/04 10:11:17;;;;;;;3.30;3.00;;;37.50;21.70;;;44.71;12.90;101895.50;5054281;28;20192;-63
2022/09/04 10:14:20;;;;;;;3.42;3.13;;;37.70;21.30;;;44.74;12.70;101891.94;5054625;28;20217;-62
2022/09/04 10:17:37;;;;;;;3.92;3.15;;;37.80;21.30;;;45.02;12.41;101889.53;5054922;28;20189;-65
2022/09/04 10:20:58;;;;;;;3.67;2.88;;;38.00;21.20;;;45.25;12.52;101892.16;5045666;28;20590;-65
2022/09/04 10:24:04;;;;;;;3.97;3.00;;;38.10;21.00;;;44.95;12.74;101891.44;5054499;28;20213;-63
2022/09/04 10:27:30;;;;;;;3.40;3.10;;;38.20;20.80;;;44.50;13.17;101889.66;5054370;28;20512;-64
2022/09/04 10:30:06;;;;;;;3.67;3.08;;;38.20;20.80;;;44.49;13.23;101893.63;5044049;28;20202;-64
2022/09/04 10:33:25;;;;;;;4.45;3.13;;;38.00;21.00;;;44.22;12.95;101894.81;5053929;28;20284;-64
2022/09/04 10:36:20;;;;;;;3.67;3.35;;;37.90;21.00;;;43.73;13.33;101901.16;5036128;28;20682;-64
2022/09/04 10:42:38;;;;;;;5.47;3.08;;;37.70;21.10;;;42.55;14.36;101889.31;5030874;28;20254;-64
2022/09/04 10:45:18;;;;;;;2.90;2.70;;;37.40;21.30;;;41.73;14.47;101897.63;5031084;28;20190;-63
2022/09/04 10:48:38;;;;;;;3.38;2.80;;;37.10;21.50;;;40.37;15.83;101890.56;5048303;28;20198;-64
2022/09/04 10:51:48;;;;;;;4.22;2.85;;;36.70;21.80;;;39.43;16.63;101889.81;5054172;28;20193;-63
2022/09/04 10:54:49;;;;;;;3.45;3.13;;;36.30;22.20;;;38.96;17.18;101885.72;5054008;28;20655;-63
2022/09/04 10:57:47;;;;;;;3.90;2.95;;;35.80;22.80;;;39.32;16.88;101893.34;5054180;28;20181;-63
2022/09/04 11:00:19;;;;;;;4.07;3.00;;;35.40;23.20;;;39.36;16.52;101885.97;5053479;28;20201;-63
2022/09/04 11:03:34;;;;;;;6.10;5.45;;;35.10;23.40;;;39.41;16.66;101892.09;5053506;28;20571;-64
2022/09/04 11:07:00;;;;;;;3.20;2.92;;;35.00;23.80;;;38.96;16.91;101886.53;5054381;28;20200;-64
2022/09/04 11:10:33;;;;;;;4.03;2.83;;;34.80;23.80;;;38.78;17.15;101878.72;5053537;28;20523;-63
2022/09/04 11:14:04;;;;;;;2.97;2.78;;;34.70;24.10;;;38.89;17.34;101877.19;5049587;28;20244;-64
2022/09/04 11:17:16;;;;;;;9.77;3.35;;;34.50;24.20;;;38.72;17.37;101885.59;4992360;28;20192;-64
2022/09/04 11:20:45;;;;;;;3.25;2.95;;;34.50;24.40;;;38.15;18.02;101875.09;5053248;28;20220;-65
2022/09/04 11:24:07;;;;;;;4.78;3.35;;;34.40;24.50;;;38.16;17.98;101868.44;4992583;28;20643;-65
2022/09/04 11:27:37;;;;;;;4.38;3.08;;;34.30;24.70;;;38.48;17.67;101870.53;5053161;28;20613;-63
2022/09/04 11:30:16;;;;;;;3.25;2.90;;;34.20;24.60;;;38.63;17.67;101871.06;5053413;28;20196;-63
2022/09/04 11:33:35;;;;;;;5.15;2.83;;;34.20;24.70;;;38.53;17.55;101873.09;5053714;28;20217;-65
2022/09/04 11:36:40;;;;;;;2.88;2.58;;;34.20;24.60;;;38.00;18.07;101870.16;5037445;28;20555;-62
2022/09/04 11:40:03;;;;;;;3.00;2.70;;;34.10;24.50;;;37.14;18.11;101870.38;5072893;28;20209;-63
2022/09/04 11:42:50;;;;;;;4.63;2.83;;;33.80;24.60;;;36.88;19.16;101866.00;5072619;28;20262;-64
2022/09/04 11:45:58;;;;;;;3.55;2.88;;;33.60;24.90;;;36.59;19.39;101872.13;5060851;28;20678;-64
2022/09/04 11:49:25;;;;;;;3.17;2.88;;;33.30;25.30;;;36.18;19.34;101871.75;5068391;28;20581;-64
2022/09/04 11:52:36;;;;;;;4.82;2.95;;;33.00;25.60;;;35.67;20.11;101870.38;5010961;28;20214;-63
2022/09/04 11:55:36;;;;;;;4.30;2.85;;;32.80;25.90;;;35.25;20.32;101865.47;5010851;28;20641;-62
2022/09/04 11:58:56;;;;;;;3.42;3.13;;;32.60;26.00;;;34.86;21.03;101857.06;5052510;28;20174;-64
2022/09/04 12:01:53;;;;;;;3.00;2.80;;;32.40;26.20;;;34.58;21.23;101856.38;5049948;28;20681;-62
2022/09/04 12:04:53;;;;;;;4.03;2.80;;;32.20;26.40;;;34.37;21.68;101847.78;5052093;28;20217;-64
2022/09/04 12:07:42;;;;;;;2.50;2.30;;;32.00;26.70;;;34.14;21.79;101846.06;5052035;28;20570;-64
2022/09/04 12:10:41;;;;;;;2.57;2.37;;;31.80;27.00;;;33.74;22.17;101841.38;5052747;28;20635;-65